Date,TemperatureHighF,TemperatureAvgF,TemperatureLowF,DewpointHighF,DewpointAvgF,DewpointLowF,HumidityHigh,HumidityAvg,HumidityLow,PressureMaxIn,PressureMinIn,WindSpeedMaxMPH,WindSpeedAvgMPH,GustSpeedMaxMPH,PrecipitationSumIn
2013-4-1,73.9,60.4,50.4,54.9,47.6,35.8,99,69,30,29.99,29.81,6,1,11,0.08
2013-4-2,62.1,47.4,32.3,35.4,28.7,19.8,92,53,20,30.17,30.00,5,1,12,0.00
2013-4-3,61.2,47.6,34.1,32.0,24.4,18.4,75,44,20,30.31,30.16,4,0,8,0.00
2013-4-4,51.1,42.6,38.2,40.9,32.4,21.8,97,70,41,30.39,29.95,7,1,12,0.68
2013-4-5,66.4,48.6,39.7,48.7,43.2,39.0,98,84,47,30.03,29.88,4,0,6,0.06
2013-4-6,68.5,52.7,40.0,41.2,33.3,24.0,95,52,24,30.29,30.03,5,1,7,0.00
2013-4-7,74.0,54.4,32.8,44.6,38.5,31.0,96,60,32,30.30,30.12,7,1,11,0.00
2013-4-8,81.1,67.2,54.7,57.2,52.9,44.5,95,63,37,30.18,30.05,6,1,12,0.00
2013-4-9,87.0,72.4,60.1,60.3,57.1,53.0,92,62,34,30.18,30.05,6,1,9,0.00
2013-4-10,89.6,75.6,64.0,63.0,59.4,56.2,86,60,33,30.09,29.93,7,1,12,0.00
2013-4-11,83.1,72.6,63.5,67.2,61.3,58.2,91,69,44,29.99,29.80,6,1,12,0.00
2013-4-12,83.0,72.6,64.3,69.9,64.0,44.5,96,76,44,29.81,29.60,8,2,16,0.63
2013-4-13,77.1,62.5,47.0,48.8,43.0,38.3,88,53,26,30.01,29.75,5,0,7,0.00
2013-4-14,83.1,64.6,45.1,54.3,44.8,36.0,98,57,20,30.12,30.01,3,0,8,0.00
2013-4-15,73.3,64.1,57.5,59.6,57.2,54.9,96,80,57,30.23,30.04,5,0,8,0.04
2013-4-16,79.3,64.9,57.9,62.4,58.7,56.5,98,83,48,30.32,30.21,4,0,6,0.00
2013-4-17,85.3,70.3,58.4,67.5,62.4,57.5,99,79,48,30.24,30.11,3,0,6,0.00
2013-4-18,81.8,70.5,58.5,64.5,60.6,57.0,97,73,45,30.21,30.05,9,1,12,0.00
2013-4-19,82.7,71.4,65.3,69.5,65.9,61.6,97,84,61,30.06,29.71,8,1,22,0.65
2013-4-20,66.4,55.1,43.7,64.7,43.7,33.6,97,71,31,30.28,29.81,6,0,11,0.13
2013-4-21,63.3,50.8,38.5,42.5,39.5,36.6,98,68,43,30.51,30.28,5,0,9,0.00
2013-4-22,62.6,49.5,35.9,46.1,40.3,34.5,95,73,46,30.52,30.29,5,1,9,0.00
2013-4-23,70.4,55.5,49.1,53.5,47.7,44.5,94,77,48,30.30,30.13,3,0,5,0.00
2013-4-24,78.1,62.7,48.3,58.5,53.8,47.4,98,76,46,30.16,29.97,7,1,11,0.00
2013-4-25,73.1,61.2,50.0,58.3,48.8,41.0,91,66,34,30.29,30.02,4,0,9,0.00
2013-4-26,74.3,58.4,42.8,49.9,43.6,35.3,99,65,26,30.44,30.28,3,0,7,0.00
2013-4-27,76.5,62.5,50.0,54.5,47.3,41.4,85,61,30,30.39,30.27,3,0,7,0.00
2013-4-28,62.0,58.2,54.4,58.0,51.6,45.8,97,80,63,30.27,30.12,2,0,4,0.35
2013-4-29,73.9,62.6,55.1,65.1,60.2,54.2,99,92,69,30.13,29.98,1,0,5,1.19
2013-4-30,68.5,60.9,53.5,61.5,58.6,52.9,99,93,73,30.19,30.01,3,0,4,0.00